createdAt,value
2024-03-20T00:00:23.268Z,79.51
2024-03-20T00:01:46.994Z,79.46
2024-03-20T00:02:48.501Z,79.51
2024-03-20T00:03:50.178Z,79.43
2024-03-20T00:04:52.079Z,79.52
2024-03-20T00:05:54.643Z,79.50
2024-03-20T00:06:56.214Z,79.32
2024-03-20T00:07:57.821Z,79.30
2024-03-20T00:09:01.398Z,79.33
2024-03-20T00:10:03.723Z,79.34
2024-03-20T00:11:07.313Z,79.26
2024-03-20T00:12:09.165Z,79.26
2024-03-20T00:13:10.663Z,78.93
2024-03-20T00:14:12.204Z,79.09
2024-03-20T00:15:13.852Z,78.94
2024-03-20T00:16:15.545Z,78.78
2024-03-20T00:17:17.172Z,78.75
2024-03-20T00:18:18.821Z,78.63
2024-03-20T00:19:20.912Z,78.47
2024-03-20T00:20:25.391Z,78.48
2024-03-20T00:21:27.270Z,78.41
2024-03-20T00:22:30.776Z,78.45
2024-03-20T00:23:32.387Z,78.32
2024-03-20T00:24:34.352Z,78.12
2024-03-20T00:25:35.938Z,78.10
2024-03-20T00:26:37.447Z,78.22
2024-03-20T00:27:39.017Z,78.21
2024-03-20T00:28:40.625Z,78.31
2024-03-20T00:29:42.302Z,78.39
2024-03-20T00:30:43.916Z,78.42
2024-03-20T00:31:45.428Z,78.36
2024-03-20T00:32:47.041Z,78.26
2024-03-20T00:33:48.650Z,78.32
2024-03-20T00:34:50.322Z,78.36
2024-03-20T00:35:51.844Z,78.55
2024-03-20T00:36:53.418Z,78.54
2024-03-20T00:37:55.048Z,78.40
2024-03-20T00:38:56.643Z,78.37
2024-03-20T00:39:58.259Z,78.38
2024-03-20T00:41:00.127Z,78.33
2024-03-20T00:42:01.704Z,78.30
2024-03-20T00:43:03.387Z,78.16
2024-03-20T00:44:05.151Z,78.19
2024-03-20T00:45:07.125Z,78.24
2024-03-20T00:46:08.616Z,78.15
2024-03-20T00:47:10.328Z,78.09
2024-03-20T00:48:12.129Z,77.92
2024-03-20T00:49:13.705Z,78.21
2024-03-20T00:50:15.527Z,78.32
2024-03-20T00:51:17.179Z,78.26
2024-03-20T00:52:18.819Z,78.23
2024-03-20T00:53:20.538Z,78.42
2024-03-20T00:54:22.149Z,78.40
2024-03-20T00:55:24.091Z,78.44
2024-03-20T00:56:25.697Z,78.36
2024-03-20T00:57:27.406Z,78.41
2024-03-20T00:58:30.782Z,78.33
2024-03-20T00:59:32.439Z,78.38
2024-03-20T01:00:33.988Z,78.34
2024-03-20T01:01:35.797Z,78.28
2024-03-20T01:02:37.349Z,78.38
2024-03-20T01:03:39.036Z,78.65
2024-03-20T01:04:40.548Z,78.78
2024-03-20T01:05:42.336Z,79.02
2024-03-20T01:06:44.793Z,79.11
2024-03-20T01:07:46.357Z,79.38
2024-03-20T01:08:47.935Z,79.33
2024-03-20T01:09:49.473Z,79.57
2024-03-20T01:10:51.197Z,79.67
2024-03-20T01:11:52.775Z,80.00
2024-03-20T01:12:54.322Z,79.97
2024-03-20T01:13:55.848Z,79.90
2024-03-20T01:14:57.395Z,79.97
2024-03-20T01:15:59.492Z,79.98
2024-03-20T01:17:01.046Z,79.73
2024-03-20T01:18:03.042Z,79.48
2024-03-20T01:19:04.544Z,79.34
2024-03-20T01:20:08.156Z,79.11
2024-03-20T01:21:10.053Z,79.14
2024-03-20T01:22:12.183Z,79.10
2024-03-20T01:23:14.347Z,79.16
2024-03-20T01:24:15.863Z,79.18
2024-03-20T01:25:18.044Z,79.09
2024-03-20T01:26:20.900Z,79.04
2024-03-20T01:27:22.462Z,79.13
2024-03-20T01:28:27.921Z,79.32
2024-03-20T01:29:29.737Z,79.51
2024-03-20T01:30:31.261Z,79.41
2024-03-20T01:31:32.874Z,79.32
2024-03-20T01:32:34.484Z,79.56
2024-03-20T01:33:36.016Z,79.39
2024-03-20T01:34:37.744Z,79.54
2024-03-20T01:35:39.322Z,79.35
2024-03-20T01:36:40.923Z,79.23
2024-03-20T01:37:42.459Z,79.44
2024-03-20T01:38:44.046Z,79.36
2024-03-20T01:39:45.606Z,79.39
2024-03-20T01:40:47.130Z,79.34
2024-03-20T01:41:48.879Z,79.47
2024-03-20T01:42:54.569Z,79.47
2024-03-20T01:43:56.193Z,79.28
2024-03-20T01:45:21.384Z,79.13
2024-03-20T01:46:35.983Z,78.92
2024-03-20T01:47:37.530Z,79.18
2024-03-20T01:48:39.233Z,79.31
2024-03-20T01:49:41.225Z,79.28
2024-03-20T01:50:44.415Z,79.21
2024-03-20T01:51:47.350Z,79.33
2024-03-20T01:52:56.084Z,79.49
2024-03-20T01:53:59.436Z,79.21
2024-03-20T01:55:02.294Z,79.06
2024-03-20T01:56:04.103Z,79.09
2024-03-20T01:57:05.784Z,79.18
2024-03-20T01:58:07.738Z,78.95
2024-03-20T01:59:10.404Z,79.28
2024-03-20T02:00:14.019Z,79.27
2024-03-20T02:01:16.637Z,79.06
2024-03-20T02:02:18.298Z,79.06
2024-03-20T02:03:20.246Z,79.33
2024-03-20T02:04:21.862Z,79.35
2024-03-20T02:05:23.760Z,78.96
2024-03-20T02:06:28.420Z,79.03
2024-03-20T02:07:30.038Z,78.93
2024-03-20T02:08:31.761Z,79.01
2024-03-20T02:09:33.352Z,79.22
2024-03-20T02:10:34.963Z,79.32
2024-03-20T02:11:36.590Z,79.23
2024-03-20T02:12:38.637Z,79.35
2024-03-20T02:13:47.313Z,79.22
2024-03-20T02:14:48.871Z,79.22
2024-03-20T02:15:50.470Z,79.31
2024-03-20T02:16:52.703Z,79.30
2024-03-20T02:17:54.377Z,79.29
2024-03-20T02:18:56.744Z,79.34
2024-03-20T02:19:58.264Z,79.36
2024-03-20T02:21:06.037Z,79.22
2024-03-20T02:22:07.558Z,79.32
2024-03-20T02:23:09.739Z,79.19
2024-03-20T02:24:11.235Z,79.05
2024-03-20T02:25:13.005Z,79.09
2024-03-20T02:26:14.616Z,78.75
2024-03-20T02:27:16.580Z,78.97
2024-03-20T02:28:18.307Z,78.92
2024-03-20T02:29:19.843Z,79.11
2024-03-20T02:30:21.818Z,78.98
2024-03-20T02:31:23.437Z,78.94
2024-03-20T02:32:25.403Z,79.01
2024-03-20T02:33:27.651Z,79.05
2024-03-20T02:34:29.304Z,79.20
2024-03-20T02:35:30.801Z,79.18
2024-03-20T02:36:32.377Z,79.25
2024-03-20T02:37:33.999Z,79.35
2024-03-20T02:38:38.446Z,79.13
2024-03-20T02:39:39.947Z,79.03
2024-03-20T02:40:41.430Z,78.90
2024-03-20T02:41:43.953Z,78.99
2024-03-20T02:42:45.490Z,78.95
2024-03-20T02:43:47.096Z,78.90
2024-03-20T02:44:49.668Z,79.07
2024-03-20T02:45:51.448Z,79.03
2024-03-20T02:46:52.949Z,78.91
2024-03-20T02:47:54.496Z,78.90
2024-03-20T02:48:56.037Z,78.87
2024-03-20T02:49:58.244Z,78.93
2024-03-20T02:50:59.727Z,78.98
2024-03-20T02:52:01.786Z,79.04
2024-03-20T02:53:04.672Z,79.19
2024-03-20T02:54:06.267Z,79.10
2024-03-20T02:55:08.540Z,79.11
2024-03-20T02:56:10.330Z,78.98
2024-03-20T02:57:11.852Z,78.89
2024-03-20T02:58:13.665Z,78.88
2024-03-20T02:59:15.243Z,78.82
2024-03-20T03:00:17.740Z,79.10
2024-03-20T03:01:19.262Z,79.17
2024-03-20T03:02:20.781Z,79.09
2024-03-20T03:03:22.319Z,79.15
2024-03-20T03:04:24.019Z,78.97
2024-03-20T03:05:27.438Z,78.91
2024-03-20T03:06:28.984Z,78.91
2024-03-20T03:07:31.525Z,78.99
2024-03-20T03:08:33.376Z,78.61
2024-03-20T03:09:35.020Z,78.81
2024-03-20T03:10:36.520Z,78.88
2024-03-20T03:11:38.092Z,78.92
2024-03-20T03:12:39.661Z,79.09
2024-03-20T03:13:42.225Z,79.11
2024-03-20T03:14:49.281Z,78.83
2024-03-20T03:15:52.507Z,79.04
2024-03-20T03:16:54.200Z,78.93
2024-03-20T03:17:56.008Z,78.84
2024-03-20T03:18:57.629Z,78.68
2024-03-20T03:19:59.240Z,78.75
2024-03-20T03:21:00.823Z,78.73
2024-03-20T03:22:02.496Z,78.63
2024-03-20T03:23:04.311Z,78.56
2024-03-20T03:24:06.270Z,78.55
2024-03-20T03:25:11.706Z,78.62
2024-03-20T03:26:13.941Z,78.70
2024-03-20T03:27:15.582Z,78.75
2024-03-20T03:28:17.059Z,78.66
2024-03-20T03:29:18.617Z,78.68
2024-03-20T03:30:20.182Z,78.64
2024-03-20T03:31:21.753Z,78.69
2024-03-20T03:32:23.225Z,78.62
2024-03-20T03:33:24.789Z,78.62
2024-03-20T03:34:26.374Z,78.66
2024-03-20T03:35:28.491Z,78.52
2024-03-20T03:36:32.438Z,78.66
2024-03-20T03:37:34.883Z,78.70
2024-03-20T03:38:36.653Z,78.66
2024-03-20T03:39:38.190Z,78.74
2024-03-20T03:40:39.714Z,78.54
2024-03-20T03:41:41.297Z,78.93
2024-03-20T03:42:42.896Z,79.04
2024-03-20T03:43:44.559Z,79.04
2024-03-20T03:44:46.932Z,79.09
2024-03-20T03:45:48.631Z,79.10
2024-03-20T03:46:51.963Z,79.09
2024-03-20T03:47:53.457Z,78.94
2024-03-20T03:48:54.950Z,78.89
2024-03-20T03:49:57.418Z,78.96
2024-03-20T03:50:59.101Z,78.75
2024-03-20T03:52:00.784Z,78.66
2024-03-20T03:53:02.410Z,78.64
2024-03-20T03:54:03.949Z,78.57
2024-03-20T03:55:05.801Z,78.70
2024-03-20T03:56:07.292Z,79.16
2024-03-20T03:57:08.754Z,79.16
2024-03-20T03:58:10.794Z,78.97
2024-03-20T03:59:12.304Z,79.19
2024-03-20T04:00:15.366Z,79.40
2024-03-20T04:01:16.939Z,79.34
2024-03-20T04:02:18.450Z,79.42
2024-03-20T04:03:23.913Z,79.44
2024-03-20T04:04:25.465Z,79.22
2024-03-20T04:05:27.449Z,79.06
2024-03-20T04:06:29.153Z,78.98
2024-03-20T04:07:31.556Z,79.01
2024-03-20T04:08:33.136Z,78.96
2024-03-20T04:09:34.659Z,79.07
2024-03-20T04:10:37.490Z,79.29
2024-03-20T04:11:38.995Z,79.38
2024-03-20T04:12:40.477Z,79.37
2024-03-20T04:13:42.650Z,79.40
2024-03-20T04:14:45.681Z,79.64
2024-03-20T04:15:47.770Z,79.43
2024-03-20T04:16:49.239Z,79.75
2024-03-20T04:17:50.826Z,79.79
2024-03-20T04:18:52.427Z,79.87
2024-03-20T04:19:54.279Z,79.62
2024-03-20T04:20:55.912Z,79.69
2024-03-20T04:21:58.648Z,79.60
2024-03-20T04:23:00.216Z,79.74
2024-03-20T04:24:01.887Z,79.61
2024-03-20T04:25:04.271Z,79.72
2024-03-20T04:26:06.063Z,79.70
2024-03-20T04:27:07.551Z,79.47
2024-03-20T04:28:10.190Z,79.46
2024-03-20T04:29:12.000Z,79.72
2024-03-20T04:30:13.536Z,79.61
2024-03-20T04:31:15.237Z,79.62
2024-03-20T04:32:16.730Z,79.56
2024-03-20T04:33:18.216Z,79.52
2024-03-20T04:34:19.867Z,79.56
2024-03-20T04:35:21.500Z,79.65
2024-03-20T04:36:23.282Z,79.95
2024-03-20T04:37:24.913Z,79.93
2024-03-20T04:38:26.490Z,79.90
2024-03-20T04:39:29.723Z,79.84
2024-03-20T04:40:31.447Z,79.82
2024-03-20T04:41:34.021Z,79.81
2024-03-20T04:42:35.701Z,80.07
2024-03-20T04:43:37.359Z,80.13
2024-03-20T04:44:39.983Z,79.81
2024-03-20T04:45:41.562Z,79.63
2024-03-20T04:46:43.193Z,79.68
2024-03-20T04:47:44.769Z,79.99
2024-03-20T04:48:46.371Z,79.93
2024-03-20T04:49:47.962Z,79.63
2024-03-20T04:50:49.484Z,79.78
2024-03-20T04:51:51.024Z,79.86
2024-03-20T04:52:52.533Z,80.00
2024-03-20T04:53:54.040Z,79.63
2024-03-20T04:54:56.993Z,79.75
2024-03-20T04:55:58.534Z,79.80
2024-03-20T04:57:00.080Z,79.75
2024-03-20T04:58:01.640Z,79.81
2024-03-20T04:59:03.129Z,79.71
2024-03-20T05:00:13.975Z,80.14
2024-03-20T05:01:15.761Z,80.17
2024-03-20T05:02:17.568Z,80.22
2024-03-20T05:03:19.063Z,79.80
2024-03-20T05:04:20.595Z,79.73
2024-03-20T05:05:22.357Z,80.25
2024-03-20T05:06:23.961Z,80.16
2024-03-20T05:07:25.606Z,80.30
2024-03-20T05:08:27.423Z,80.43
2024-03-20T05:09:29.067Z,80.42
2024-03-20T05:10:30.582Z,80.21
2024-03-20T05:11:32.478Z,80.24
2024-03-20T05:12:34.940Z,80.21
2024-03-20T05:13:36.555Z,80.24
2024-03-20T05:14:38.146Z,80.26
2024-03-20T05:15:40.139Z,80.15
2024-03-20T05:16:44.268Z,80.21
2024-03-20T05:17:46.232Z,80.07
2024-03-20T05:18:47.712Z,80.30
2024-03-20T05:19:49.217Z,80.15
2024-03-20T05:20:50.715Z,80.14
2024-03-20T05:21:52.287Z,80.39
2024-03-20T05:22:53.863Z,80.68
2024-03-20T05:23:55.400Z,80.60
2024-03-20T05:24:56.944Z,80.60
2024-03-20T05:25:59.042Z,80.45
2024-03-20T05:27:00.861Z,80.35
2024-03-20T05:28:02.633Z,80.35
2024-03-20T05:29:04.266Z,80.31
2024-03-20T05:30:06.722Z,80.48
2024-03-20T05:31:08.357Z,80.36
2024-03-20T05:32:10.632Z,80.54
2024-03-20T05:33:12.692Z,80.60
2024-03-20T05:34:14.198Z,80.66
2024-03-20T05:35:15.768Z,80.74
2024-03-20T05:36:17.386Z,80.76
2024-03-20T05:37:18.899Z,80.67
2024-03-20T05:38:20.445Z,80.74
2024-03-20T05:39:21.991Z,80.81
2024-03-20T05:40:23.971Z,80.78
2024-03-20T05:41:25.586Z,80.73
2024-03-20T05:42:27.356Z,80.68
2024-03-20T05:43:28.961Z,80.55
2024-03-20T05:44:30.719Z,80.61
2024-03-20T05:45:32.345Z,80.43
2024-03-20T05:46:34.437Z,80.34
2024-03-20T05:47:35.959Z,80.33
2024-03-20T05:48:42.627Z,80.19
2024-03-20T05:49:44.364Z,80.20
2024-03-20T05:50:45.852Z,80.18
2024-03-20T05:51:48.505Z,80.22
2024-03-20T05:52:49.993Z,80.19
2024-03-20T05:53:51.622Z,80.01
2024-03-20T05:54:53.299Z,80.17
2024-03-20T05:55:55.429Z,79.88
2024-03-20T05:56:56.929Z,79.87
2024-03-20T05:57:58.443Z,79.93
2024-03-20T05:59:00.018Z,79.87
2024-03-20T06:00:02.131Z,79.98
2024-03-20T06:01:06.018Z,79.99
2024-03-20T06:02:07.613Z,79.88
2024-03-20T06:03:09.513Z,79.91
2024-03-20T06:04:11.418Z,79.56
2024-03-20T06:05:13.378Z,79.54
2024-03-20T06:06:14.991Z,79.08
2024-03-20T06:07:16.497Z,78.86
2024-03-20T06:08:18.045Z,78.60
2024-03-20T06:09:19.716Z,78.73
2024-03-20T06:10:21.834Z,78.79
2024-03-20T06:11:23.463Z,78.63
2024-03-20T06:12:26.048Z,78.38
2024-03-20T06:13:28.528Z,78.30
2024-03-20T06:14:31.055Z,78.27
2024-03-20T06:15:34.811Z,78.17
2024-03-20T06:16:37.421Z,77.99
2024-03-20T06:17:39.175Z,77.81
2024-03-20T06:18:41.046Z,77.59
2024-03-20T06:19:42.673Z,77.35
2024-03-20T06:20:44.275Z,77.12
2024-03-20T06:21:45.896Z,77.15
2024-03-20T06:22:47.486Z,77.08
2024-03-20T06:23:49.118Z,76.96
2024-03-20T06:24:51.043Z,76.98
2024-03-20T06:25:52.532Z,77.03
2024-03-20T06:26:54.061Z,76.84
2024-03-20T06:27:55.683Z,76.55
2024-03-20T06:28:57.268Z,76.18
2024-03-20T06:29:59.097Z,76.06
2024-03-20T06:31:00.680Z,75.91
2024-03-20T06:32:02.307Z,75.94
2024-03-20T06:33:06.288Z,75.89
2024-03-20T06:34:11.418Z,75.81
2024-03-20T06:35:13.793Z,75.29
2024-03-20T06:36:15.530Z,75.31
2024-03-20T06:37:18.026Z,75.22
2024-03-20T06:38:19.939Z,75.07
2024-03-20T06:39:21.539Z,75.03
2024-03-20T06:40:26.291Z,74.58
2024-03-20T06:41:28.077Z,74.26
2024-03-20T06:42:29.659Z,73.96
2024-03-20T06:43:34.741Z,73.80
2024-03-20T06:44:36.447Z,73.50
2024-03-20T06:45:43.329Z,73.46
2024-03-20T06:46:45.544Z,73.21
2024-03-20T06:47:47.052Z,73.13
2024-03-20T06:48:48.663Z,73.13
2024-03-20T06:49:51.105Z,73.06
2024-03-20T06:50:52.793Z,72.79
2024-03-20T06:51:54.332Z,72.73
2024-03-20T06:52:58.110Z,72.39
2024-03-20T06:54:01.559Z,72.59
2024-03-20T06:55:03.407Z,72.38
2024-03-20T06:56:06.079Z,72.19
2024-03-20T06:57:09.359Z,71.90
2024-03-20T06:58:12.033Z,72.14
2024-03-20T06:59:14.648Z,71.82
2024-03-20T07:00:19.162Z,71.83
2024-03-20T07:01:20.852Z,71.65
2024-03-20T07:02:22.348Z,71.63
2024-03-20T07:03:24.021Z,71.26
2024-03-20T07:04:30.505Z,71.18
2024-03-20T07:05:32.475Z,71.14
2024-03-20T07:06:34.178Z,71.28
2024-03-20T07:07:35.765Z,71.03
2024-03-20T07:08:37.619Z,70.81
2024-03-20T07:09:39.237Z,71.14
2024-03-20T07:10:40.741Z,71.32
2024-03-20T07:11:45.436Z,71.15
2024-03-20T07:12:48.664Z,70.54
2024-03-20T07:13:50.250Z,70.42
2024-03-20T07:14:51.822Z,70.08
2024-03-20T07:15:53.361Z,70.21
2024-03-20T07:16:59.651Z,70.61
2024-03-20T07:18:03.525Z,70.42
2024-03-20T07:19:05.399Z,69.99
2024-03-20T07:20:09.714Z,69.28
2024-03-20T07:21:11.439Z,69.19
2024-03-20T07:22:15.613Z,69.40
2024-03-20T07:23:17.339Z,69.23
2024-03-20T07:24:18.890Z,69.03
2024-03-20T07:25:22.272Z,68.73
2024-03-20T07:26:23.813Z,68.95
2024-03-20T07:27:25.465Z,68.58
2024-03-20T07:28:27.000Z,68.55
2024-03-20T07:29:30.122Z,68.87
2024-03-20T07:30:31.776Z,69.08
2024-03-20T07:31:38.427Z,69.00
2024-03-20T07:32:40.605Z,68.69
2024-03-20T07:33:42.229Z,68.28
2024-03-20T07:34:44.514Z,68.01
2024-03-20T07:35:47.619Z,67.50
2024-03-20T07:36:49.194Z,67.41
2024-03-20T07:37:54.154Z,67.17
2024-03-20T07:38:57.121Z,67.21
2024-03-20T07:39:58.750Z,67.39
2024-03-20T07:41:00.289Z,67.29
2024-03-20T07:42:03.778Z,67.73
2024-03-20T07:43:05.402Z,68.02
2024-03-20T07:44:06.947Z,67.70
2024-03-20T07:45:09.158Z,67.56
2024-03-20T07:46:13.687Z,67.46
2024-03-20T07:47:15.608Z,67.00
2024-03-20T07:48:17.158Z,66.58
2024-03-20T07:49:18.744Z,66.53
2024-03-20T07:50:20.432Z,66.62
2024-03-20T07:51:21.949Z,66.44
2024-03-20T07:52:26.271Z,66.73
2024-03-20T07:53:29.764Z,66.48
2024-03-20T07:54:31.370Z,66.24
2024-03-20T07:55:33.267Z,66.33
2024-03-20T07:56:34.947Z,65.52
2024-03-20T07:57:36.619Z,65.51
2024-03-20T07:58:38.528Z,65.14
2024-03-20T07:59:40.085Z,65.09
2024-03-20T08:00:41.661Z,65.08
2024-03-20T08:01:43.221Z,65.61
2024-03-20T08:02:45.343Z,65.65
2024-03-20T08:03:49.425Z,66.10
2024-03-20T08:04:50.970Z,65.80
2024-03-20T08:05:52.469Z,65.77
2024-03-20T08:06:54.761Z,66.11
2024-03-20T08:07:56.302Z,65.79
2024-03-20T08:08:57.874Z,65.33
2024-03-20T08:09:59.437Z,65.01
2024-03-20T08:11:01.279Z,65.29
2024-03-20T08:12:03.109Z,65.27
2024-03-20T08:13:04.765Z,64.88
2024-03-20T08:14:09.063Z,64.88
2024-03-20T08:15:11.002Z,64.83
2024-03-20T08:16:12.593Z,64.10
2024-03-20T08:17:14.198Z,63.14
2024-03-20T08:18:16.904Z,62.35
2024-03-20T08:19:18.816Z,62.47
2024-03-20T08:20:22.668Z,62.89
2024-03-20T08:21:24.549Z,63.18
2024-03-20T08:22:26.798Z,63.77
2024-03-20T08:23:28.602Z,63.52
2024-03-20T08:24:30.248Z,62.59
2024-03-20T08:25:32.170Z,62.50
2024-03-20T08:26:33.808Z,62.51
2024-03-20T08:27:36.065Z,62.36
2024-03-20T08:28:37.698Z,62.49
2024-03-20T08:29:39.374Z,62.28
2024-03-20T08:30:40.862Z,61.69
2024-03-20T08:31:42.613Z,61.99
2024-03-20T08:32:44.206Z,61.81
2024-03-20T08:33:46.132Z,61.74
2024-03-20T08:34:47.903Z,61.91
2024-03-20T08:35:56.132Z,61.88
2024-03-20T08:36:57.726Z,61.46
2024-03-20T08:37:59.200Z,61.30
2024-03-20T08:39:00.812Z,61.21
2024-03-20T08:40:03.994Z,61.39
2024-03-20T08:41:05.976Z,61.37
2024-03-20T08:42:09.572Z,61.51
2024-03-20T08:43:19.839Z,61.35
2024-03-20T08:44:24.837Z,61.88
2024-03-20T08:45:26.486Z,62.05
2024-03-20T08:46:28.384Z,61.99
2024-03-20T08:47:30.739Z,60.98
2024-03-20T08:48:32.402Z,60.79
2024-03-20T08:49:37.643Z,60.70
2024-03-20T08:50:44.701Z,60.90
2024-03-20T08:51:48.380Z,61.00
2024-03-20T08:52:50.770Z,61.03
2024-03-20T08:53:52.335Z,60.95
2024-03-20T08:54:53.875Z,61.08
2024-03-20T08:55:56.362Z,60.70
2024-03-20T08:56:57.897Z,60.41
2024-03-20T08:57:59.496Z,60.18
2024-03-20T08:59:01.347Z,59.80
2024-03-20T09:00:06.875Z,60.73
2024-03-20T09:01:08.540Z,60.95
2024-03-20T09:02:10.327Z,60.64
2024-03-20T09:03:14.639Z,59.92
2024-03-20T09:04:16.561Z,59.48
2024-03-20T09:05:18.449Z,58.98
2024-03-20T09:06:20.109Z,58.76
2024-03-20T09:07:21.694Z,58.97
2024-03-20T09:08:23.252Z,59.70
2024-03-20T09:09:25.078Z,60.17
2024-03-20T09:10:26.611Z,60.20
2024-03-20T09:11:29.085Z,60.42
2024-03-20T09:12:30.934Z,59.66
2024-03-20T09:13:32.603Z,59.22
2024-03-20T09:14:34.718Z,59.61
2024-03-20T09:15:36.321Z,59.95
2024-03-20T09:16:37.889Z,59.44
2024-03-20T09:17:39.585Z,59.37
2024-03-20T09:18:41.964Z,59.46
2024-03-20T09:19:43.555Z,59.53
2024-03-20T09:20:45.044Z,59.31
2024-03-20T09:21:46.873Z,58.97
2024-03-20T09:22:49.893Z,58.49
2024-03-20T09:23:51.639Z,59.22
2024-03-20T09:24:53.152Z,59.82
2024-03-20T09:25:54.703Z,59.00
2024-03-20T09:26:56.610Z,59.10
2024-03-20T09:28:00.459Z,58.85
2024-03-20T09:29:02.032Z,59.09
2024-03-20T09:30:04.226Z,59.69
2024-03-20T09:31:05.823Z,59.60
2024-03-20T09:32:08.757Z,59.25
2024-03-20T09:33:11.503Z,58.05
2024-03-20T09:34:13.091Z,57.61
2024-03-20T09:35:14.735Z,57.70
2024-03-20T09:36:16.498Z,57.34
2024-03-20T09:37:19.900Z,56.33
2024-03-20T09:38:21.474Z,55.94
2024-03-20T09:39:23.682Z,55.46
2024-03-20T09:40:27.107Z,55.51
2024-03-20T09:41:35.390Z,55.65
2024-03-20T09:42:39.850Z,55.64
2024-03-20T09:43:41.834Z,56.54
2024-03-20T09:44:43.708Z,57.94
2024-03-20T09:45:45.543Z,57.47
2024-03-20T09:46:51.263Z,56.59
2024-03-20T09:47:56.249Z,56.20
2024-03-20T09:48:57.895Z,56.82
2024-03-20T09:50:00.293Z,55.92
2024-03-20T09:51:02.248Z,55.13
2024-03-20T09:52:05.285Z,55.90
2024-03-20T09:53:08.816Z,56.35
2024-03-20T09:54:10.486Z,56.68
2024-03-20T09:55:17.271Z,56.26
2024-03-20T09:56:21.759Z,56.33
2024-03-20T09:57:25.144Z,55.71
2024-03-20T09:58:27.212Z,55.11
2024-03-20T09:59:32.251Z,54.62
2024-03-20T10:00:33.816Z,54.61
2024-03-20T10:01:35.896Z,54.17
2024-03-20T10:02:37.439Z,54.26
2024-03-20T10:03:40.180Z,53.95
2024-03-20T10:04:49.541Z,53.64
2024-03-20T10:05:57.335Z,52.74
2024-03-20T10:06:58.963Z,52.89
2024-03-20T10:08:00.588Z,53.64
2024-03-20T10:09:09.987Z,52.85
2024-03-20T10:10:14.264Z,52.60
2024-03-20T10:11:16.021Z,52.63
2024-03-20T10:12:17.963Z,53.14
2024-03-20T10:13:19.530Z,52.57
2024-03-20T10:14:22.979Z,52.80
2024-03-20T10:15:25.102Z,53.21
2024-03-20T10:16:30.373Z,52.27
2024-03-20T10:17:34.686Z,51.83
2024-03-20T10:18:36.419Z,51.46
2024-03-20T10:19:39.452Z,51.20
2024-03-20T10:20:40.986Z,51.21
2024-03-20T10:21:44.634Z,51.91
2024-03-20T10:22:56.694Z,52.08
2024-03-20T10:24:00.239Z,51.68
2024-03-20T10:25:01.848Z,50.81
2024-03-20T10:26:03.658Z,50.39
2024-03-20T10:27:08.109Z,50.78
2024-03-20T10:28:14.894Z,49.63
2024-03-20T10:29:20.573Z,49.51
2024-03-20T10:30:31.508Z,49.19
2024-03-20T10:31:36.032Z,49.65
2024-03-20T10:32:39.457Z,51.04
2024-03-20T10:33:44.404Z,51.25
2024-03-20T10:34:48.785Z,50.94
2024-03-20T10:35:53.550Z,50.85
2024-03-20T10:36:56.231Z,50.08
2024-03-20T10:37:58.700Z,50.73
2024-03-20T10:39:12.177Z,50.71
2024-03-20T10:40:22.755Z,49.20
2024-03-20T10:41:24.978Z,48.75
2024-03-20T10:42:29.156Z,49.04
2024-03-20T10:43:30.695Z,48.45
2024-03-20T10:44:33.222Z,48.48
2024-03-20T10:45:37.165Z,48.04
2024-03-20T10:46:40.608Z,48.23
2024-03-20T10:47:45.352Z,47.71
2024-03-20T10:48:49.585Z,47.56
2024-03-20T10:49:51.622Z,48.12
2024-03-20T10:50:55.174Z,48.08
2024-03-20T10:51:57.257Z,47.69
2024-03-20T10:52:59.913Z,47.47
2024-03-20T10:54:02.354Z,46.94
2024-03-20T10:55:07.134Z,46.72
2024-03-20T10:56:21.177Z,46.82
2024-03-20T10:57:24.253Z,47.03
2024-03-20T10:58:26.023Z,48.90
2024-03-20T10:59:32.287Z,48.35
2024-03-20T11:00:35.071Z,47.01
2024-03-20T11:01:38.129Z,46.12
2024-03-20T11:02:39.990Z,45.50
2024-03-20T11:03:52.408Z,45.01
2024-03-20T11:04:53.999Z,45.90
2024-03-20T11:05:55.592Z,44.86
2024-03-20T11:06:58.810Z,43.91
2024-03-20T11:08:01.304Z,43.29
2024-03-20T11:09:06.500Z,43.80
2024-03-20T11:10:27.730Z,45.10
2024-03-20T11:11:30.595Z,45.05
2024-03-20T11:12:36.568Z,43.97
2024-03-20T11:13:39.112Z,43.40
2024-03-20T11:14:44.880Z,43.97
2024-03-20T11:15:52.621Z,43.82
2024-03-20T11:17:00.496Z,43.93
2024-03-20T11:18:02.784Z,44.01
2024-03-20T11:19:07.162Z,43.96
2024-03-20T11:20:33.310Z,44.53
2024-03-20T11:21:37.221Z,45.19
2024-03-20T11:22:38.880Z,45.39
2024-03-20T11:23:42.774Z,45.67
2024-03-20T11:24:44.736Z,45.63
2024-03-20T11:25:46.438Z,45.10
2024-03-20T11:26:48.241Z,45.09
2024-03-20T11:27:50.852Z,45.43
2024-03-20T11:28:52.710Z,45.27
2024-03-20T11:29:54.278Z,44.98
2024-03-20T11:30:55.939Z,45.10
2024-03-20T11:31:57.526Z,45.07
2024-03-20T11:32:59.178Z,43.95
2024-03-20T11:34:04.885Z,43.81
2024-03-20T11:35:11.359Z,43.71
2024-03-20T11:36:14.690Z,42.78
2024-03-20T11:37:19.463Z,42.68
2024-03-20T11:38:29.116Z,42.80
2024-03-20T11:39:30.761Z,43.72
2024-03-20T11:40:33.490Z,44.37
2024-03-20T11:41:38.128Z,44.55
2024-03-20T11:42:41.207Z,43.63
2024-03-20T11:43:44.110Z,42.86
2024-03-20T11:44:45.756Z,42.66
2024-03-20T11:45:48.010Z,42.83
2024-03-20T11:46:49.645Z,42.26
2024-03-20T11:47:52.153Z,41.31
2024-03-20T11:48:54.161Z,40.38
2024-03-20T11:49:56.895Z,40.41
2024-03-20T11:50:58.426Z,40.73
2024-03-20T11:52:04.225Z,41.06
2024-03-20T11:53:07.229Z,40.87
2024-03-20T11:54:09.988Z,39.53
2024-03-20T11:55:14.579Z,39.80
2024-03-20T11:56:17.674Z,39.60
2024-03-20T11:57:20.486Z,39.06
2024-03-20T11:58:22.084Z,39.42
2024-03-20T11:59:25.366Z,39.51
2024-03-20T12:00:27.132Z,39.27
2024-03-20T12:01:28.982Z,39.95
2024-03-20T12:02:35.439Z,39.72
2024-03-20T12:03:38.355Z,40.53
2024-03-20T12:04:39.916Z,40.38
2024-03-20T12:05:41.456Z,39.92
2024-03-20T12:06:42.984Z,39.05
2024-03-20T12:07:45.129Z,38.34
2024-03-20T12:08:46.783Z,38.93
2024-03-20T12:09:48.363Z,40.07
2024-03-20T12:10:49.873Z,40.53
2024-03-20T12:11:51.453Z,40.39
2024-03-20T12:12:53.156Z,39.74
2024-03-20T12:13:55.981Z,39.41
2024-03-20T12:15:00.308Z,39.18
2024-03-20T12:16:02.074Z,38.71
2024-03-20T12:17:05.792Z,38.25
2024-03-20T12:18:09.535Z,38.86
2024-03-20T12:19:11.176Z,39.39
2024-03-20T12:20:13.390Z,39.02
2024-03-20T12:21:16.927Z,38.21
2024-03-20T12:22:20.315Z,38.04
2024-03-20T12:23:23.941Z,38.73
2024-03-20T12:24:26.780Z,38.72
2024-03-20T12:25:28.396Z,39.31
2024-03-20T12:26:30.367Z,39.04
2024-03-20T12:27:32.009Z,39.19
2024-03-20T12:28:33.898Z,38.87
2024-03-20T12:29:35.708Z,38.47
2024-03-20T12:30:39.545Z,37.78
2024-03-20T12:31:41.378Z,37.27
2024-03-20T12:32:43.025Z,37.57
2024-03-20T12:33:45.200Z,38.03
2024-03-20T12:34:46.753Z,37.75
2024-03-20T12:35:48.598Z,38.07
2024-03-20T12:36:50.157Z,37.81
2024-03-20T12:37:51.975Z,37.34
2024-03-20T12:38:56.500Z,37.08
2024-03-20T12:39:58.448Z,37.65
2024-03-20T12:41:00.419Z,36.99
2024-03-20T12:42:03.020Z,36.77
2024-03-20T12:43:05.373Z,37.02
2024-03-20T12:44:10.016Z,36.72
2024-03-20T12:45:11.808Z,36.47
2024-03-20T12:46:13.937Z,36.28
2024-03-20T12:47:16.477Z,36.42
2024-03-20T12:48:19.132Z,36.95
2024-03-20T12:49:21.134Z,36.97
2024-03-20T12:50:22.793Z,36.94
2024-03-20T12:51:27.898Z,36.46
2024-03-20T12:52:30.218Z,35.91
2024-03-20T12:53:31.973Z,35.74
2024-03-20T12:54:33.518Z,36.36
2024-03-20T12:55:35.201Z,35.76
2024-03-20T12:56:36.725Z,35.26
2024-03-20T12:57:38.770Z,35.28
2024-03-20T12:58:40.477Z,35.04
2024-03-20T12:59:42.688Z,35.08
2024-03-20T13:00:45.350Z,36.20
2024-03-20T13:01:47.011Z,36.44
2024-03-20T13:02:49.075Z,36.55
2024-03-20T13:03:50.639Z,35.85
2024-03-20T13:04:52.799Z,36.29
2024-03-20T13:05:56.997Z,35.37
2024-03-20T13:06:58.598Z,35.30
2024-03-20T13:08:00.426Z,35.98
2024-03-20T13:09:07.499Z,36.19
2024-03-20T13:10:11.664Z,36.19
2024-03-20T13:11:13.399Z,36.17
2024-03-20T13:12:15.826Z,35.58
2024-03-20T13:13:22.835Z,35.55
2024-03-20T13:14:24.406Z,35.26
2024-03-20T13:15:25.918Z,34.94
2024-03-20T13:16:27.683Z,34.67
2024-03-20T13:17:29.489Z,34.04
2024-03-20T13:18:41.504Z,34.76
2024-03-20T13:19:43.023Z,33.99
2024-03-20T13:20:44.587Z,33.62
2024-03-20T13:21:49.208Z,33.63
2024-03-20T13:22:50.805Z,33.97
2024-03-20T13:24:00.731Z,33.73
2024-03-20T13:25:06.557Z,33.72
2024-03-20T13:26:13.747Z,33.91